Cloncurry, Queensland

1:17 AM AEST on August 30, 2015 (GMT +1000)
Cloncurry | | Change Station
CLOSE
Current Station
Airport
Location: Cloncurry Airport,
Elevation: 614 ft
Nearby Weather Stations

Elev 614 ft 20.67 °S, 140.50 °E | Updated 17 minutes ago

Clear
Clear
73 °F
Feels Like 73 °F
N
12
Wind Variable Wind from South
Gusts 18 mph

Today
High -- | Low -- °F
--% Chance of Precip.
Yesterday
High -- | Low -- °F
Precip. -- in
6:49 AM 6:28 PM
Full, 100% visible
Pressure 30.06 in
Visibility -9999.0 miles
Clouds
Dew Point 36 °F
Humidity 25%
Rainfall 0.00 in
Snow Depth Not available.
UV Not available.
Pollen Not available.
Air Quality Not available.
Flu Activity Not available.
METAR YCCY 291500Z AUTO 19010KT //// // ////// 23/02 Q1018
Pressure 30.06 in
Visibility -9999.0 miles
Clouds
Dew Point 36 °F
Humidity 25%
Rainfall 0.00 in
Snow Depth Not available.
UV Not available.
Pollen Not available.
Air Quality Not available.
Flu Activity Not available.
METAR YCCY 291500Z AUTO 19010KT //// // ////// 23/02 Q1018

10-Day Weather Forecast

×

Almanac

Astronomy

Aug. 30, 2015 Rise Set
Actual Time
Civil Twilight
Nautical Twilight
Astronomical Twilight
Moon
Length of Visible Light
Length of Day
Tomorrow will be .
, % of the Moon is Illuminated

Today's Extremes

Country Highs Country Lows

Community

WunderPhotos

Upload Photos

1,850,694 photos uploaded!

WunderBlogs® & News

Nearby

Air Quality

  Air Quality AQ Index Pollutant
Not available.

Snow Depth

Station Depth Elevation

Earthquake Activity

City Distance Mag. Time & Date
Minimum magnitude displayed is 2.5.

Coastal Water Temperatures

Place Temperature

Stations

Nearby Weather Stations

Station Location Temp. Windchill Dew Point Humidity Wind Precip. Elev Updated Type